Alts de Penuelas, Puerto Rico
Current Conditions -  °F | °C
As of 2:50 PM on Sunday 21 Dec 2014 (Local Time) from TJPS Reporting Station
Few Clouds Few Clouds  
Wind Chill: 90°   Ceiling: Unl
Heat Index: 92°   Visibility: 10mi
Dew Point: 66°   Wind: 9mph
Humidity: 46%   Direction: 80°E
Pressure: 29.95"   Gusts: NA
Location:  18.0112°N, 66.3514°W
Report Text: TJPS 211850Z 08008KT 10SM FEW030 32/19 A2995
Loading
Personal Weather Stations






























Interactive Weather Map New forecast layout! Learn more

10-Day Weather Forecast

Advertisements
Track Severe Weather on mobile